createdAt,value
2022-08-26T00:01:15.214Z,66.08
2022-08-26T00:03:20.731Z,65.77
2022-08-26T00:05:24.813Z,66.01
2022-08-26T00:07:28.458Z,66.36
2022-08-26T00:09:33.120Z,66.07
2022-08-26T00:11:42.431Z,65.99
2022-08-26T00:13:47.836Z,66.00
2022-08-26T00:15:53.791Z,66.65
2022-08-26T00:17:57.611Z,66.58
2022-08-26T00:20:02.791Z,66.74
2022-08-26T00:22:06.807Z,66.59
2022-08-26T00:24:10.607Z,66.81
2022-08-26T00:26:14.219Z,66.37
2022-08-26T00:28:19.060Z,66.92
2022-08-26T00:30:28.681Z,66.93
2022-08-26T00:32:32.330Z,67.33
2022-08-26T00:34:38.223Z,67.27
2022-08-26T00:36:43.658Z,68.04
2022-08-26T00:38:48.170Z,68.37
2022-08-26T00:40:53.909Z,68.34
2022-08-26T00:42:58.347Z,67.97
2022-08-26T00:45:01.894Z,68.40
2022-08-26T00:47:09.295Z,68.53
2022-08-26T00:49:17.344Z,68.90
2022-08-26T00:51:29.838Z,68.80
2022-08-26T00:53:41.463Z,69.09
2022-08-26T00:55:45.111Z,69.26
2022-08-26T00:57:50.857Z,69.25
2022-08-26T00:59:57.820Z,69.46
2022-08-26T01:02:03.101Z,69.62
2022-08-26T01:04:07.385Z,69.78
2022-08-26T01:06:13.056Z,70.39
2022-08-26T01:08:16.740Z,70.32
2022-08-26T01:10:26.084Z,70.69
2022-08-26T01:12:33.244Z,70.44
2022-08-26T01:14:38.564Z,71.02
2022-08-26T01:16:44.202Z,71.25
2022-08-26T01:18:49.184Z,71.16
2022-08-26T01:21:00.005Z,71.19
2022-08-26T01:23:07.128Z,71.40
2022-08-26T01:25:12.987Z,71.64
2022-08-26T01:27:20.937Z,72.16
2022-08-26T01:29:25.788Z,71.96
2022-08-26T01:31:32.683Z,72.45
2022-08-26T01:33:42.376Z,72.94
2022-08-26T01:35:48.345Z,72.86
2022-08-26T01:37:56.036Z,73.46
2022-08-26T01:40:00.909Z,73.27
2022-08-26T01:42:10.413Z,73.41
2022-08-26T01:44:20.976Z,73.36
2022-08-26T01:46:25.736Z,73.99
2022-08-26T01:48:35.610Z,74.12
2022-08-26T01:50:40.001Z,74.11
2022-08-26T01:52:46.108Z,74.67
2022-08-26T01:54:56.974Z,74.82
2022-08-26T01:57:04.770Z,74.65
2022-08-26T01:59:12.563Z,74.66
2022-08-26T02:01:17.577Z,74.87
2022-08-26T02:03:22.694Z,74.68
2022-08-26T02:05:26.451Z,74.73
2022-08-26T02:07:31.438Z,74.73
2022-08-26T02:09:41.295Z,74.48
2022-08-26T02:11:45.232Z,74.67
2022-08-26T02:13:53.193Z,74.70
2022-08-26T02:15:58.598Z,74.34
2022-08-26T02:18:04.212Z,74.83
2022-08-26T02:20:14.795Z,74.87
2022-08-26T02:22:22.028Z,75.40
2022-08-26T02:24:28.375Z,75.44
2022-08-26T02:26:31.658Z,75.53
2022-08-26T02:28:40.152Z,75.92
2022-08-26T02:30:47.261Z,76.01
2022-08-26T02:32:51.914Z,76.48
2022-08-26T02:34:55.337Z,76.97
2022-08-26T02:37:00.766Z,77.84
2022-08-26T02:39:04.968Z,78.47
2022-08-26T02:41:08.728Z,79.04
2022-08-26T02:43:13.978Z,79.90
2022-08-26T02:45:23.289Z,79.90
2022-08-26T02:47:29.237Z,80.76
2022-08-26T02:49:36.001Z,81.44
2022-08-26T02:51:39.796Z,81.76
2022-08-26T02:53:43.239Z,82.42
2022-08-26T02:55:49.512Z,82.37
2022-08-26T02:57:53.312Z,82.78
2022-08-26T02:59:56.611Z,83.30
2022-08-26T03:02:00.516Z,82.66
2022-08-26T03:04:07.502Z,83.04
2022-08-26T03:06:10.803Z,83.50
2022-08-26T03:08:14.241Z,83.65
2022-08-26T03:10:17.631Z,84.28
2022-08-26T03:12:21.383Z,84.47
2022-08-26T03:14:25.027Z,84.19
2022-08-26T03:16:32.255Z,84.03
2022-08-26T03:18:36.144Z,84.14
2022-08-26T03:20:40.846Z,83.99
2022-08-26T03:22:44.825Z,83.67
2022-08-26T03:24:48.309Z,84.37
2022-08-26T03:26:53.039Z,83.54
2022-08-26T03:29:15.029Z,84.35
2022-08-26T03:31:18.636Z,84.49
2022-08-26T03:33:22.566Z,84.32
2022-08-26T03:35:27.061Z,84.44
2022-08-26T03:37:32.325Z,84.31
2022-08-26T03:39:36.135Z,84.37
2022-08-26T03:41:40.713Z,84.38
2022-08-26T03:43:44.795Z,84.58
2022-08-26T03:45:48.381Z,84.34
2022-08-26T03:47:54.883Z,84.43
2022-08-26T03:50:01.624Z,84.44
2022-08-26T03:52:05.946Z,84.21
2022-08-26T03:54:11.025Z,84.54
2022-08-26T03:56:15.081Z,84.60
2022-08-26T03:58:18.674Z,84.51
2022-08-26T04:00:22.540Z,84.83
2022-08-26T04:02:26.779Z,85.37
2022-08-26T04:04:30.530Z,85.28
2022-08-26T04:06:38.068Z,85.44
2022-08-26T04:08:42.105Z,85.63
2022-08-26T04:10:47.429Z,85.82
2022-08-26T04:12:51.663Z,85.37
2022-08-26T04:14:55.331Z,85.46
2022-08-26T04:17:00.689Z,85.54
2022-08-26T04:19:04.527Z,85.67
2022-08-26T04:21:08.913Z,85.85
2022-08-26T04:23:13.887Z,85.64
2022-08-26T04:25:21.545Z,85.75
2022-08-26T04:27:26.796Z,85.66
2022-08-26T04:29:31.003Z,85.46
2022-08-26T04:31:36.013Z,85.38
2022-08-26T04:33:41.892Z,85.17
2022-08-26T04:35:45.617Z,85.00
2022-08-26T04:37:51.818Z,85.23
2022-08-26T04:39:55.563Z,85.55
2022-08-26T04:41:59.739Z,85.81
2022-08-26T04:44:07.996Z,86.04
2022-08-26T04:46:12.952Z,85.97
2022-08-26T04:48:17.298Z,85.95
2022-08-26T04:50:23.670Z,86.12
2022-08-26T04:52:28.541Z,85.99
2022-08-26T04:54:32.190Z,86.20
2022-08-26T04:56:40.647Z,86.13
2022-08-26T04:58:44.120Z,86.44
2022-08-26T05:00:50.132Z,86.43
2022-08-26T05:02:54.010Z,86.50
2022-08-26T05:04:58.626Z,86.58
2022-08-26T05:07:03.459Z,86.86
2022-08-26T05:09:07.667Z,87.21
2022-08-26T05:11:11.935Z,87.59
2022-08-26T05:13:18.168Z,87.50
2022-08-26T05:15:24.121Z,88.12
2022-08-26T05:17:29.233Z,88.16
2022-08-26T05:19:32.876Z,88.26
2022-08-26T05:21:38.922Z,88.83
2022-08-26T05:23:42.417Z,88.56
2022-08-26T05:25:48.738Z,88.70
2022-08-26T05:27:52.280Z,88.89
2022-08-26T05:29:58.560Z,89.48
2022-08-26T05:32:02.157Z,89.75
2022-08-26T05:34:08.545Z,90.07
2022-08-26T05:36:15.303Z,90.32
2022-08-26T05:38:21.385Z,90.62
2022-08-26T05:40:24.984Z,90.36
2022-08-26T05:42:29.673Z,90.50
2022-08-26T05:44:53.900Z,91.32
2022-08-26T05:46:57.039Z,91.23
2022-08-26T05:49:01.730Z,91.41
2022-08-26T05:51:09.373Z,91.70
2022-08-26T05:53:14.904Z,92.29
2022-08-26T05:55:21.747Z,92.46
2022-08-26T05:57:25.370Z,93.03
2022-08-26T05:59:28.947Z,93.29
2022-08-26T06:01:35.808Z,93.34
2022-08-26T06:03:42.110Z,93.22
2022-08-26T06:05:45.633Z,93.40
2022-08-26T06:08:08.041Z,93.17
2022-08-26T06:10:31.629Z,93.12
2022-08-26T06:12:36.261Z,93.61
2022-08-26T06:14:39.820Z,93.82
2022-08-26T06:16:45.229Z,93.84
2022-08-26T06:18:50.939Z,93.70
2022-08-26T06:20:58.402Z,93.63
2022-08-26T06:23:22.845Z,93.12
2022-08-26T06:25:42.156Z,93.22
2022-08-26T06:27:47.092Z,90.64
2022-08-26T06:29:51.634Z,88.96
2022-08-26T06:31:57.359Z,87.98
2022-08-26T06:34:01.745Z,88.31
2022-08-26T06:36:06.013Z,88.28
2022-08-26T06:38:11.679Z,87.69
2022-08-26T06:40:15.204Z,87.33
2022-08-26T06:42:19.632Z,86.99
2022-08-26T06:44:23.407Z,86.71
2022-08-26T06:46:27.447Z,86.76
2022-08-26T06:48:31.218Z,86.80
2022-08-26T06:50:35.404Z,87.04
2022-08-26T06:52:39.102Z,87.83
2022-08-26T06:54:45.287Z,88.47
2022-08-26T06:56:49.694Z,88.22
2022-08-26T06:58:54.857Z,88.44
2022-08-26T07:01:03.121Z,89.05
2022-08-26T07:03:13.727Z,88.78
2022-08-26T07:05:17.733Z,89.31
2022-08-26T07:07:21.881Z,89.35
2022-08-26T07:09:28.765Z,89.50
2022-08-26T07:11:34.730Z,89.54
2022-08-26T07:13:39.257Z,89.51
2022-08-26T07:15:43.759Z,89.08
2022-08-26T07:17:47.379Z,88.72
2022-08-26T07:19:51.484Z,88.90
2022-08-26T07:21:56.152Z,89.50
2022-08-26T07:24:01.391Z,89.39
2022-08-26T07:26:06.611Z,89.08
2022-08-26T07:28:12.124Z,89.21
2022-08-26T07:30:16.042Z,89.43
2022-08-26T07:32:22.966Z,89.78
2022-08-26T07:34:27.542Z,89.77
2022-08-26T07:36:31.701Z,90.32
2022-08-26T07:38:35.943Z,90.13
2022-08-26T07:40:40.887Z,89.99
2022-08-26T07:42:44.633Z,90.40
2022-08-26T07:44:51.244Z,90.31
2022-08-26T07:46:55.172Z,90.24
2022-08-26T07:48:59.540Z,89.82
2022-08-26T07:51:03.592Z,89.39
2022-08-26T07:53:07.895Z,89.37
2022-08-26T07:55:14.324Z,89.56
2022-08-26T07:57:19.103Z,89.53
2022-08-26T07:59:23.493Z,89.62
2022-08-26T08:01:29.860Z,89.97
2022-08-26T08:03:34.533Z,89.87
2022-08-26T08:05:41.103Z,89.54
2022-08-26T08:07:45.824Z,89.60
2022-08-26T08:09:51.544Z,89.53
2022-08-26T08:11:55.083Z,89.78
2022-08-26T08:14:00.855Z,89.59
2022-08-26T08:16:05.179Z,89.77
2022-08-26T08:18:15.382Z,89.64
2022-08-26T08:20:20.238Z,89.71
2022-08-26T08:22:24.516Z,89.56
2022-08-26T08:24:28.027Z,89.14
2022-08-26T08:26:31.771Z,88.96
2022-08-26T08:28:36.473Z,89.54
2022-08-26T08:30:41.358Z,89.79
2022-08-26T08:32:45.200Z,89.91
2022-08-26T08:34:50.411Z,89.64
2022-08-26T08:36:54.420Z,89.51
2022-08-26T08:38:58.056Z,89.83
2022-08-26T08:41:02.015Z,89.89
2022-08-26T08:43:12.884Z,90.11
2022-08-26T08:45:21.451Z,89.96
2022-08-26T08:47:32.528Z,89.68
2022-08-26T08:49:36.357Z,89.45
2022-08-26T08:51:48.612Z,89.55
2022-08-26T08:53:55.927Z,89.44
2022-08-26T08:56:11.841Z,89.67
2022-08-26T08:58:20.778Z,90.25
2022-08-26T09:00:30.255Z,90.06
2022-08-26T09:02:40.474Z,89.49
2022-08-26T09:05:08.716Z,88.99
2022-08-26T09:07:23.765Z,88.60
2022-08-26T09:09:41.221Z,88.34
2022-08-26T09:11:45.291Z,88.43
2022-08-26T09:13:55.475Z,88.93
2022-08-26T09:16:07.607Z,88.47
2022-08-26T09:18:26.164Z,87.92
2022-08-26T09:20:42.455Z,87.80
2022-08-26T09:22:51.612Z,87.46
2022-08-26T09:24:55.337Z,87.54
2022-08-26T09:26:59.448Z,87.70
2022-08-26T09:29:05.731Z,87.07
2022-08-26T09:31:14.368Z,86.33
2022-08-26T09:33:20.199Z,86.73
2022-08-26T09:35:27.670Z,85.94
2022-08-26T09:37:38.483Z,86.11
2022-08-26T09:39:44.344Z,86.10
2022-08-26T09:42:04.540Z,86.10
2022-08-26T09:44:15.700Z,85.86
2022-08-26T09:46:25.673Z,86.03
2022-08-26T09:48:34.818Z,85.99
2022-08-26T09:50:50.674Z,85.37
2022-08-26T09:53:12.785Z,85.50
2022-08-26T09:55:25.257Z,85.76
2022-08-26T09:57:31.204Z,85.63
2022-08-26T09:59:34.925Z,86.17
2022-08-26T10:01:42.202Z,86.01
2022-08-26T10:03:47.375Z,85.77
2022-08-26T10:05:59.813Z,86.50
2022-08-26T10:08:18.906Z,86.33
2022-08-26T10:10:26.718Z,86.72
2022-08-26T10:12:34.081Z,87.07
2022-08-26T10:16:53.800Z,88.06
2022-08-26T10:19:05.733Z,88.18
2022-08-26T10:21:14.385Z,88.71
2022-08-26T10:23:26.403Z,89.13
2022-08-26T10:25:37.728Z,89.47
2022-08-26T10:27:52.732Z,89.56
2022-08-26T10:30:05.407Z,89.14
2022-08-26T10:32:15.725Z,88.78
2022-08-26T10:34:21.328Z,88.86
2022-08-26T10:37:10.540Z,89.17
2022-08-26T10:39:15.450Z,88.39
2022-08-26T10:41:24.455Z,87.61
2022-08-26T10:43:31.431Z,88.06
2022-08-26T10:45:40.392Z,87.99
2022-08-26T10:47:50.046Z,88.14
2022-08-26T10:49:58.800Z,87.67
2022-08-26T10:52:15.195Z,86.62
2022-08-26T10:54:27.412Z,86.88
2022-08-26T10:56:44.848Z,87.70
2022-08-26T10:59:00.111Z,86.15
2022-08-26T11:01:27.343Z,86.33
2022-08-26T11:03:40.272Z,86.41
2022-08-26T11:05:44.091Z,86.27
2022-08-26T11:07:51.699Z,85.57
2022-08-26T11:09:56.182Z,85.91
2022-08-26T11:12:06.421Z,85.51
2022-08-26T11:14:38.547Z,85.13
2022-08-26T11:16:52.911Z,86.05
2022-08-26T11:18:57.222Z,86.35
2022-08-26T11:21:00.954Z,86.72
2022-08-26T11:23:50.598Z,86.77
2022-08-26T11:26:27.453Z,86.12
2022-08-26T11:28:44.882Z,86.03
2022-08-26T11:30:57.553Z,85.56
2022-08-26T11:33:02.053Z,85.67
2022-08-26T11:35:09.419Z,85.88
2022-08-26T11:39:54.772Z,84.16
2022-08-26T11:42:03.315Z,84.34
2022-08-26T11:44:09.448Z,83.96
2022-08-26T11:46:14.942Z,83.64
2022-08-26T11:48:20.006Z,83.54
2022-08-26T11:50:27.161Z,83.71
2022-08-26T11:52:30.705Z,83.17
2022-08-26T11:54:36.077Z,82.78
2022-08-26T11:56:42.142Z,82.99
2022-08-26T11:58:48.320Z,82.30
2022-08-26T12:00:58.202Z,81.90
2022-08-26T12:03:06.313Z,80.69
2022-08-26T12:05:10.301Z,80.55
2022-08-26T12:07:15.926Z,79.68
2022-08-26T12:09:25.169Z,79.60
2022-08-26T12:11:31.166Z,78.79
2022-08-26T12:13:36.999Z,79.25
2022-08-26T12:15:41.524Z,79.63
2022-08-26T12:17:52.995Z,78.96
2022-08-26T12:19:58.180Z,77.92
2022-08-26T12:22:05.509Z,77.66
2022-08-26T12:24:09.489Z,77.23
2022-08-26T12:26:22.646Z,77.27
2022-08-26T12:28:27.490Z,76.79
2022-08-26T12:30:31.263Z,76.46
2022-08-26T12:32:37.520Z,75.67
2022-08-26T12:35:10.467Z,75.90
2022-08-26T12:37:16.737Z,75.28
2022-08-26T12:39:28.635Z,74.58
2022-08-26T12:41:48.391Z,73.98
2022-08-26T12:43:51.981Z,73.00
2022-08-26T12:45:58.615Z,73.13
2022-08-26T12:48:07.365Z,72.71
2022-08-26T12:50:19.697Z,72.18
2022-08-26T12:52:31.094Z,72.75
2022-08-26T12:54:56.541Z,72.74
2022-08-26T12:57:11.233Z,72.73
2022-08-26T12:59:25.248Z,72.08
2022-08-26T13:01:29.901Z,72.38
2022-08-26T13:03:43.998Z,72.19
2022-08-26T13:05:49.677Z,71.42
2022-08-26T13:08:14.642Z,71.20
2022-08-26T13:10:37.523Z,70.28
2022-08-26T13:12:42.566Z,70.61
2022-08-26T13:14:46.415Z,70.88
2022-08-26T13:16:50.586Z,71.52
2022-08-26T13:18:57.134Z,71.99
2022-08-26T13:21:02.582Z,71.87
2022-08-26T13:23:06.138Z,70.48
2022-08-26T13:25:10.270Z,69.74
2022-08-26T13:27:15.702Z,70.49
2022-08-26T13:29:19.952Z,70.11
2022-08-26T13:31:26.965Z,69.21
2022-08-26T13:33:30.799Z,68.72
2022-08-26T13:35:34.743Z,68.14
2022-08-26T13:37:39.715Z,67.79
2022-08-26T13:39:45.817Z,67.48
2022-08-26T13:41:49.629Z,67.17
2022-08-26T13:43:53.720Z,67.54
2022-08-26T13:45:57.635Z,67.88
2022-08-26T13:48:01.235Z,67.29
2022-08-26T13:50:06.218Z,67.36
2022-08-26T13:52:09.916Z,66.17
2022-08-26T13:54:15.112Z,66.11
2022-08-26T13:56:18.973Z,66.00
2022-08-26T13:58:22.676Z,65.80
2022-08-26T14:00:29.134Z,65.77
2022-08-26T14:02:32.783Z,66.18
2022-08-26T14:04:36.335Z,66.02
2022-08-26T14:06:40.021Z,65.22
2022-08-26T14:08:45.052Z,64.97
2022-08-26T14:10:50.629Z,65.41
2022-08-26T14:12:55.140Z,64.84
2022-08-26T14:14:58.871Z,64.75
2022-08-26T14:17:02.869Z,65.18
2022-08-26T14:19:08.933Z,64.08
2022-08-26T14:21:14.894Z,63.96
2022-08-26T14:23:19.353Z,64.27
2022-08-26T14:25:25.477Z,64.36
2022-08-26T14:27:31.216Z,63.87
2022-08-26T14:29:35.018Z,63.37
2022-08-26T14:31:39.035Z,63.91
2022-08-26T14:33:43.446Z,63.96
2022-08-26T14:35:48.809Z,64.27
2022-08-26T14:37:54.168Z,64.23
2022-08-26T14:39:58.225Z,64.27
2022-08-26T14:42:02.001Z,64.38
2022-08-26T14:44:09.873Z,63.98
2022-08-26T14:46:15.866Z,64.32
2022-08-26T14:48:20.110Z,64.49
2022-08-26T14:50:26.612Z,63.80
2022-08-26T14:52:50.830Z,63.72
2022-08-26T14:54:55.269Z,64.22
2022-08-26T14:57:02.104Z,64.12
2022-08-26T14:59:07.481Z,63.94
2022-08-26T15:01:13.372Z,63.83
2022-08-26T15:05:26.159Z,62.83
2022-08-26T15:07:30.414Z,63.31
2022-08-26T15:09:37.915Z,63.23
2022-08-26T15:11:41.926Z,62.81
2022-08-26T15:13:46.185Z,62.83
2022-08-26T15:15:51.719Z,62.75
2022-08-26T15:17:55.737Z,62.58
2022-08-26T15:20:00.068Z,62.69
2022-08-26T15:22:04.008Z,63.00
2022-08-26T15:24:08.118Z,62.50
2022-08-26T15:26:13.650Z,62.13
2022-08-26T15:28:17.685Z,62.42
2022-08-26T15:30:22.198Z,62.39
2022-08-26T15:32:28.050Z,61.69
2022-08-26T15:34:32.184Z,62.10
2022-08-26T15:36:38.012Z,61.67
2022-08-26T15:38:42.963Z,61.49
2022-08-26T15:40:46.848Z,61.13
2022-08-26T15:42:54.353Z,61.09
2022-08-26T15:45:05.456Z,61.35
2022-08-26T15:47:09.505Z,60.71
2022-08-26T15:49:18.267Z,60.72
2022-08-26T15:51:26.022Z,60.55
2022-08-26T15:53:31.703Z,58.84
2022-08-26T15:55:35.632Z,58.42
2022-08-26T15:57:39.504Z,58.30
2022-08-26T15:59:46.034Z,58.05
2022-08-26T16:01:49.844Z,58.03
2022-08-26T16:03:54.437Z,58.22
2022-08-26T16:05:59.851Z,58.47
2022-08-26T16:08:04.776Z,58.28
2022-08-26T16:10:09.893Z,58.10
2022-08-26T16:14:18.137Z,58.08
2022-08-26T16:16:22.678Z,57.87
2022-08-26T16:18:26.965Z,58.42
2022-08-26T16:20:32.559Z,57.99
2022-08-26T16:22:38.033Z,57.86
2022-08-26T16:24:41.889Z,57.59
2022-08-26T16:26:46.236Z,57.30
2022-08-26T16:28:50.053Z,57.50
2022-08-26T16:30:53.915Z,57.56
2022-08-26T16:32:58.882Z,57.63
2022-08-26T16:35:02.336Z,57.92
2022-08-26T16:37:05.897Z,57.96
2022-08-26T16:39:11.896Z,57.83
2022-08-26T16:41:15.482Z,58.10
2022-08-26T16:43:18.857Z,58.04
2022-08-26T16:45:23.133Z,57.84
2022-08-26T16:47:27.314Z,58.24
2022-08-26T16:49:30.953Z,57.83
2022-08-26T16:51:37.776Z,57.77
2022-08-26T16:53:42.128Z,58.21
2022-08-26T16:55:48.893Z,57.38
2022-08-26T16:57:53.712Z,56.90
2022-08-26T16:59:57.294Z,56.82
2022-08-26T17:02:01.727Z,57.45
2022-08-26T17:04:05.922Z,57.55
2022-08-26T17:06:10.242Z,57.80
2022-08-26T17:08:24.350Z,57.90
2022-08-26T17:10:33.070Z,58.15
2022-08-26T17:12:39.307Z,57.94
2022-08-26T17:14:43.355Z,57.91
2022-08-26T17:16:51.703Z,57.79
2022-08-26T17:18:56.431Z,57.74
2022-08-26T17:21:03.551Z,57.24
2022-08-26T17:23:07.713Z,57.64
2022-08-26T17:25:13.037Z,57.02
2022-08-26T17:27:16.949Z,57.00
2022-08-26T17:29:22.239Z,56.82
2022-08-26T17:31:26.165Z,57.10
2022-08-26T17:33:30.751Z,57.21
2022-08-26T17:35:34.961Z,57.22
2022-08-26T17:37:38.963Z,57.48
2022-08-26T17:39:44.254Z,57.80
2022-08-26T17:41:48.215Z,57.80
2022-08-26T17:43:51.694Z,57.82
2022-08-26T17:46:07.146Z,57.55
2022-08-26T17:48:12.236Z,57.41
2022-08-26T17:50:17.698Z,57.06
2022-08-26T17:52:21.724Z,57.18
2022-08-26T17:54:26.083Z,56.98
2022-08-26T17:56:31.461Z,56.60
2022-08-26T17:58:35.002Z,56.91
2022-08-26T18:00:39.277Z,56.95
2022-08-26T18:02:44.836Z,56.84
2022-08-26T18:04:48.456Z,57.32
2022-08-26T18:06:52.302Z,57.16
2022-08-26T18:08:56.692Z,57.28
2022-08-26T18:11:00.604Z,57.46
2022-08-26T18:13:05.016Z,57.16
2022-08-26T18:15:09.529Z,57.51
2022-08-26T18:17:13.865Z,57.14
2022-08-26T18:19:22.731Z,56.91
2022-08-26T18:21:28.089Z,56.23
2022-08-26T18:23:32.367Z,56.17
2022-08-26T18:25:36.130Z,56.16
2022-08-26T18:27:40.015Z,55.66
2022-08-26T18:29:45.469Z,55.87
2022-08-26T18:31:49.943Z,55.91
2022-08-26T18:33:54.144Z,55.70
2022-08-26T18:35:59.010Z,56.18
2022-08-26T18:38:11.322Z,55.98
2022-08-26T18:40:16.428Z,55.48
2022-08-26T18:42:20.501Z,56.03
2022-08-26T18:44:25.619Z,55.99
2022-08-26T18:46:29.804Z,55.96
2022-08-26T18:48:33.492Z,55.54
2022-08-26T18:50:40.510Z,55.81
2022-08-26T18:52:45.550Z,55.87
2022-08-26T18:54:49.650Z,55.63
2022-08-26T18:56:53.184Z,55.72
2022-08-26T18:58:56.811Z,56.13
2022-08-26T19:01:00.471Z,55.90
2022-08-26T19:03:04.398Z,56.51
2022-08-26T19:05:12.061Z,56.50
2022-08-26T19:07:15.781Z,56.38
2022-08-26T19:09:21.810Z,56.16
2022-08-26T19:11:31.746Z,56.50
2022-08-26T19:13:37.726Z,56.60
2022-08-26T19:15:42.515Z,56.31
2022-08-26T19:17:46.144Z,56.71
2022-08-26T19:19:49.981Z,56.44
2022-08-26T19:21:53.700Z,56.72
2022-08-26T19:23:58.669Z,56.88
2022-08-26T19:26:05.747Z,57.19
2022-08-26T19:28:09.651Z,57.12
2022-08-26T19:30:13.553Z,57.30
2022-08-26T19:32:17.863Z,57.59
2022-08-26T19:34:21.497Z,57.55
2022-08-26T19:36:26.675Z,58.25
2022-08-26T19:38:31.237Z,59.29
2022-08-26T19:40:36.656Z,60.41
2022-08-26T19:42:41.710Z,60.93
2022-08-26T19:45:03.066Z,60.86
2022-08-26T19:47:08.367Z,60.51
2022-08-26T19:49:12.011Z,60.19
2022-08-26T19:51:17.086Z,59.81
2022-08-26T19:53:21.002Z,59.69
2022-08-26T19:55:26.347Z,59.46
2022-08-26T19:57:30.293Z,59.15
2022-08-26T19:59:36.379Z,58.90
2022-08-26T20:01:40.134Z,58.90
2022-08-26T20:03:44.936Z,58.69
2022-08-26T20:05:49.027Z,58.85
2022-08-26T20:07:53.244Z,58.69
2022-08-26T20:09:57.538Z,58.96
2022-08-26T20:12:02.660Z,58.81
2022-08-26T20:14:06.731Z,59.08
2022-08-26T20:16:12.481Z,59.03
2022-08-26T20:18:30.078Z,59.32
2022-08-26T20:20:51.339Z,59.65
2022-08-26T20:22:55.505Z,59.59
2022-08-26T20:24:59.155Z,59.61
2022-08-26T20:27:07.456Z,59.61
2022-08-26T20:29:13.376Z,59.67
2022-08-26T20:31:19.841Z,59.96
2022-08-26T20:33:23.874Z,60.15
2022-08-26T20:35:28.486Z,60.44
2022-08-26T20:37:32.283Z,60.26
2022-08-26T20:39:36.324Z,60.75
2022-08-26T20:41:41.051Z,60.98
2022-08-26T20:43:45.114Z,61.19
2022-08-26T20:45:48.859Z,61.31
2022-08-26T20:47:54.566Z,61.79
2022-08-26T20:49:58.405Z,62.30
2022-08-26T20:52:02.952Z,62.38
2022-08-26T20:54:07.267Z,62.53
2022-08-26T20:56:12.113Z,62.66
2022-08-26T20:58:16.088Z,62.62
2022-08-26T21:00:26.376Z,62.95
2022-08-26T21:02:30.734Z,63.13
2022-08-26T21:04:37.110Z,63.55
2022-08-26T21:06:45.136Z,63.78
2022-08-26T21:08:53.828Z,64.18
2022-08-26T21:10:58.715Z,64.48
2022-08-26T21:13:03.576Z,64.47
2022-08-26T21:15:08.938Z,64.74
2022-08-26T21:17:12.984Z,64.63
2022-08-26T21:19:18.948Z,65.17
2022-08-26T21:21:25.334Z,65.47
2022-08-26T21:23:29.415Z,65.82
2022-08-26T21:25:33.453Z,65.65
2022-08-26T21:27:37.590Z,66.04
2022-08-26T21:29:41.476Z,66.34
2022-08-26T21:31:46.787Z,66.60
2022-08-26T21:33:51.210Z,66.71
2022-08-26T21:35:55.875Z,67.26
2022-08-26T21:38:01.598Z,67.56
2022-08-26T21:40:06.300Z,67.66
2022-08-26T21:42:10.115Z,67.72
2022-08-26T21:44:15.317Z,67.75
2022-08-26T21:46:23.592Z,67.91
2022-08-26T21:48:27.900Z,68.34
2022-08-26T21:50:38.720Z,68.29
2022-08-26T21:52:42.846Z,68.71
2022-08-26T21:54:49.574Z,68.87
2022-08-26T21:56:54.063Z,69.30
2022-08-26T21:58:58.644Z,69.17
2022-08-26T22:01:02.824Z,69.39
2022-08-26T22:03:06.740Z,69.30
2022-08-26T22:05:11.014Z,69.46
2022-08-26T22:07:15.219Z,69.65
2022-08-26T22:09:21.012Z,69.21
2022-08-26T22:11:27.563Z,69.44
2022-08-26T22:13:33.279Z,69.52
2022-08-26T22:15:40.552Z,69.94
2022-08-26T22:17:44.179Z,69.83
2022-08-26T22:19:48.056Z,69.65
2022-08-26T22:21:53.594Z,69.77
2022-08-26T22:23:59.038Z,69.98
2022-08-26T22:26:03.595Z,69.98
2022-08-26T22:28:09.709Z,69.99
2022-08-26T22:30:14.075Z,70.11
2022-08-26T22:32:18.880Z,69.94
2022-08-26T22:34:23.682Z,70.41
2022-08-26T22:36:30.496Z,70.69
2022-08-26T22:38:35.104Z,70.64
2022-08-26T22:40:40.075Z,70.27
2022-08-26T22:42:43.719Z,70.73
2022-08-26T22:45:03.393Z,70.59
2022-08-26T22:47:09.440Z,70.71
2022-08-26T22:49:16.537Z,71.51
2022-08-26T22:51:20.556Z,71.22
2022-08-26T22:53:24.535Z,71.00
2022-08-26T22:55:28.206Z,71.03
2022-08-26T22:57:31.819Z,71.32
2022-08-26T22:59:35.291Z,71.61
2022-08-26T23:01:42.765Z,71.99
2022-08-26T23:03:46.473Z,71.46
2022-08-26T23:05:50.921Z,72.10
2022-08-26T23:07:57.643Z,72.10
2022-08-26T23:10:01.523Z,72.35
2022-08-26T23:12:06.080Z,72.78
2022-08-26T23:14:09.647Z,73.09
2022-08-26T23:16:14.623Z,72.23
2022-08-26T23:18:19.676Z,73.25
2022-08-26T23:20:24.811Z,73.11
2022-08-26T23:22:28.617Z,73.78
2022-08-26T23:24:32.416Z,73.23
2022-08-26T23:26:37.089Z,73.64
2022-08-26T23:28:40.969Z,72.97
2022-08-26T23:30:44.845Z,73.87
2022-08-26T23:32:48.464Z,73.86
2022-08-26T23:34:59.839Z,73.91
2022-08-26T23:37:06.157Z,73.66
2022-08-26T23:39:10.779Z,73.58
2022-08-26T23:41:14.097Z,72.98
2022-08-26T23:43:20.760Z,73.33
2022-08-26T23:45:25.290Z,73.97
2022-08-26T23:47:29.039Z,73.60
2022-08-26T23:49:33.479Z,74.17
2022-08-26T23:51:56.836Z,73.75
2022-08-26T23:54:00.382Z,74.43
2022-08-26T23:56:04.492Z,74.54
2022-08-26T23:58:08.054Z,74.35
